Time;durP1;ratioP1;P1;durP2;ratioP2;P2;SDS_P1;SDS_P2;PMS_P1;PMS_P2;Temp;Humidity;BMP_temperature;BMP_pressure;BME280_temperature;BME280_humidity;BME280_pressure;Samples;Min_cycle;Max_cycle;Signal;HPM_P1;HPM_P2
2022/04/19 00:01:54;;;;;;;2.45;1.90;;;;;;;;;;4956719;28;20497;-77
2022/04/19 00:04:19;;;;;;;4.70;2.10;;;;;;;;;;4955369;29;20106;-77
2022/04/19 00:06:45;;;;;;;2.65;1.88;;;;;;;;;;4955223;28;20515;-77
2022/04/19 00:09:11;;;;;;;2.30;1.83;;;;;;;;;;4956737;28;20234;-78
2022/04/19 00:11:36;;;;;;;2.55;1.90;;;;;;;;;;4955139;29;20099;-78
2022/04/19 00:14:02;;;;;;;2.00;1.80;;;;;;;;;;4955086;29;20023;-78
2022/04/19 00:16:27;;;;;;;2.55;1.80;;;;;;;;;;4954840;29;20111;-78
2022/04/19 00:18:53;;;;;;;4.13;1.95;;;;;;;;;;4956240;28;20417;-77
2022/04/19 00:21:19;;;;;;;2.08;1.88;;;;;;;;;;4971008;28;20035;-78
2022/04/19 00:23:46;;;;;;;1.75;1.60;;;;;;;;;;4954828;29;20032;-78
2022/04/19 00:26:12;;;;;;;1.92;1.73;;;;;;;;;;4970843;28;20031;-78
2022/04/19 00:28:37;;;;;;;2.55;2.33;;;;;;;;;;4954705;28;20027;-78
2022/04/19 00:31:04;;;;;;;2.55;1.90;;;;;;;;;;4938784;29;20027;-78
2022/04/19 00:33:30;;;;;;;2.08;1.77;;;;;;;;;;4955603;28;20390;-77
2022/04/19 00:35:56;;;;;;;2.20;1.80;;;;;;;;;;4939223;29;20043;-77
2022/04/19 00:38:21;;;;;;;2.10;1.90;;;;;;;;;;4954625;29;20536;-77
2022/04/19 00:40:47;;;;;;;2.75;2.00;;;;;;;;;;4955729;28;20047;-77
2022/04/19 00:43:12;;;;;;;1.98;1.73;;;;;;;;;;4955747;29;20182;-77
2022/04/19 00:45:38;;;;;;;3.88;1.98;;;;;;;;;;4955590;29;20035;-78
2022/04/19 00:48:04;;;;;;;2.47;1.88;;;;;;;;;;4954237;29;20046;-77
2022/04/19 00:50:31;;;;;;;5.97;2.05;;;;;;;;;;4954606;29;20047;-77
2022/04/19 00:52:57;;;;;;;2.38;2.03;;;;;;;;;;4954303;28;20033;-77
2022/04/19 00:55:23;;;;;;;1.85;1.70;;;;;;;;;;4938345;29;20031;-77
2022/04/19 00:57:50;;;;;;;2.83;2.03;;;;;;;;;;4954069;29;20031;-77
2022/04/19 01:00:17;;;;;;;2.00;1.80;;;;;;;;;;4954471;28;20059;-77
2022/04/19 01:02:42;;;;;;;2.20;2.00;;;;;;;;;;4954008;29;20023;-77
2022/04/19 01:05:09;;;;;;;2.78;2.13;;;;;;;;;;4953828;29;20050;-77
2022/04/19 01:07:36;;;;;;;3.05;2.20;;;;;;;;;;4955281;29;20126;-78
2022/04/19 01:10:02;;;;;;;3.08;2.17;;;;;;;;;;4953859;29;20103;-77
2022/04/19 01:15:14;;;;;;;2.53;2.20;;;;;;;;;;4955285;29;20046;-78
2022/04/19 01:17:41;;;;;;;4.28;2.33;;;;;;;;;;4969443;28;20039;-78
2022/04/19 01:20:12;;;;;;;5.22;2.30;;;;;;;;;;4955060;28;20042;-78
2022/04/19 01:22:39;;;;;;;2.58;2.17;;;;;;;;;;4922595;29;20209;-78
2022/04/19 01:25:05;;;;;;;2.80;2.20;;;;;;;;;;4954984;28;20035;-77
2022/04/19 01:27:31;;;;;;;2.60;2.28;;;;;;;;;;4937924;29;20106;-77
2022/04/19 01:30:00;;;;;;;3.42;2.65;;;;;;;;;;4953291;28;20058;-77
2022/04/19 01:32:29;;;;;;;3.88;2.10;;;;;;;;;;4938214;29;20370;-77
2022/04/19 01:35:18;;;;;;;3.05;2.30;;;;;;;;;;4953537;29;20039;-78
2022/04/19 01:37:48;;;;;;;2.90;2.45;;;;;;;;;;4953511;29;20454;-78
2022/04/19 01:40:16;;;;;;;3.22;2.38;;;;;;;;;;4954479;29;20118;-78
2022/04/19 01:42:52;;;;;;;2.65;2.40;;;;;;;;;;4954672;28;20344;-78
2022/04/19 01:45:25;;;;;;;3.25;2.40;;;;;;;;;;4952656;28;20035;-78
2022/04/19 01:47:54;;;;;;;4.20;2.83;;;;;;;;;;4954843;28;20114;-78
2022/04/19 01:50:21;;;;;;;4.20;2.88;;;;;;;;;;4937911;29;20144;-78
2022/04/19 01:52:47;;;;;;;3.33;2.72;;;;;;;;;;4953500;29;20391;-78
2022/04/19 01:55:14;;;;;;;5.13;2.65;;;;;;;;;;4937270;29;20445;-78
2022/04/19 01:57:44;;;;;;;4.15;2.65;;;;;;;;;;4954435;28;20035;-77
2022/04/19 02:00:11;;;;;;;2.63;2.38;;;;;;;;;;4954344;28;20106;-78
2022/04/19 02:02:37;;;;;;;3.45;2.65;;;;;;;;;;4954629;28;20023;-77
2022/04/19 02:05:03;;;;;;;3.25;2.67;;;;;;;;;;4953291;29;20423;-78
2022/04/19 02:07:29;;;;;;;3.65;2.60;;;;;;;;;;4953089;28;20135;-77
2022/04/19 02:09:54;;;;;;;3.58;2.40;;;;;;;;;;4953113;29;20040;-77
2022/04/19 02:12:20;;;;;;;4.38;2.88;;;;;;;;;;4953231;29;20090;-77
2022/04/19 02:14:45;;;;;;;3.63;2.55;;;;;;;;;;4953257;29;20035;-78
2022/04/19 02:17:11;;;;;;;2.65;2.45;;;;;;;;;;4954561;28;20386;-78
2022/04/19 02:19:36;;;;;;;4.32;2.60;;;;;;;;;;4953011;29;20473;-78
2022/04/19 02:22:06;;;;;;;3.47;2.67;;;;;;;;;;4968838;28;20023;-78
2022/04/19 02:24:32;;;;;;;3.17;2.60;;;;;;;;;;4954012;29;20051;-77
2022/04/19 02:26:58;;;;;;;3.15;2.63;;;;;;;;;;4954100;28;20030;-78
2022/04/19 02:29:25;;;;;;;3.50;2.67;;;;;;;;;;4953790;28;20039;-78
2022/04/19 02:31:51;;;;;;;5.93;2.80;;;;;;;;;;4968553;28;20035;-77
2022/04/19 02:34:18;;;;;;;3.92;2.80;;;;;;;;;;4936710;29;20030;-77
2022/04/19 02:36:43;;;;;;;3.63;2.90;;;;;;;;;;4952431;29;20178;-76
2022/04/19 02:39:09;;;;;;;6.47;3.33;;;;;;;;;;4952539;29;20114;-77
2022/04/19 02:41:34;;;;;;;4.13;2.80;;;;;;;;;;4952073;29;20143;-77
2022/04/19 02:44:00;;;;;;;3.30;2.72;;;;;;;;;;4953643;29;20035;-76
2022/04/19 02:46:26;;;;;;;6.03;2.80;;;;;;;;;;4952516;29;20035;-76
2022/04/19 02:48:51;;;;;;;4.38;2.70;;;;;;;;;;4953591;28;20100;-77
2022/04/19 02:51:18;;;;;;;5.20;2.90;;;;;;;;;;4968447;28;20126;-77
2022/04/19 02:53:43;;;;;;;4.00;3.00;;;;;;;;;;4953718;28;20035;-76
2022/04/19 02:56:09;;;;;;;3.33;2.97;;;;;;;;;;4955661;28;20034;-77
2022/04/19 02:58:34;;;;;;;3.22;2.60;;;;;;;;;;4958640;29;20069;-78
2022/04/19 03:01:01;;;;;;;5.28;2.60;;;;;;;;;;4975020;28;20039;-77
2022/04/19 03:03:28;;;;;;;3.65;2.67;;;;;;;;;;4958589;29;20028;-78
2022/04/19 03:05:53;;;;;;;3.15;2.85;;;;;;;;;;4960410;28;20446;-78
2022/04/19 03:08:19;;;;;;;2.97;2.65;;;;;;;;;;4959779;28;20130;-76
2022/04/19 03:10:44;;;;;;;4.57;3.22;;;;;;;;;;4958605;28;20035;-77
2022/04/19 03:13:10;;;;;;;4.10;3.00;;;;;;;;;;4958514;28;20030;-77
2022/04/19 03:15:36;;;;;;;3.63;2.90;;;;;;;;;;4959610;28;20135;-77
2022/04/19 03:18:02;;;;;;;3.15;2.65;;;;;;;;;;4959766;28;20050;-78
2022/04/19 03:20:27;;;;;;;4.10;2.58;;;;;;;;;;4958519;29;20505;-77
2022/04/19 03:28:20;;;;;;;3.63;2.92;;;;;;;;;;4959724;29;20085;-78
2022/04/19 03:30:46;;;;;;;3.00;2.70;;;;;;;;;;4958016;28;20039;-78
2022/04/19 03:33:11;;;;;;;4.13;2.92;;;;;;;;;;4958550;28;20027;-78
2022/04/19 03:35:37;;;;;;;2.97;2.67;;;;;;;;;;4959573;28;20071;-78
2022/04/19 03:38:06;;;;;;;5.00;2.85;;;;;;;;;;4958237;29;20038;-78
2022/04/19 03:40:31;;;;;;;3.63;2.72;;;;;;;;;;4959231;29;20122;-77
2022/04/19 03:42:57;;;;;;;5.15;3.13;;;;;;;;;;4941992;29;20162;-76
2022/04/19 03:45:22;;;;;;;4.05;2.70;;;;;;;;;;4959196;29;20478;-78
2022/04/19 03:47:49;;;;;;;4.55;3.05;;;;;;;;;;4957887;28;20533;-79
2022/04/19 03:50:14;;;;;;;3.78;3.00;;;;;;;;;;4974014;28;20370;-78
2022/04/19 03:52:40;;;;;;;4.85;3.42;;;;;;;;;;4959251;28;20031;-77
2022/04/19 03:55:06;;;;;;;4.18;2.80;;;;;;;;;;4957935;29;20082;-76
2022/04/19 03:57:31;;;;;;;3.78;3.28;;;;;;;;;;4957972;28;20031;-76
2022/04/19 03:59:57;;;;;;;4.68;3.00;;;;;;;;;;4959601;28;20039;-76
2022/04/19 04:02:22;;;;;;;3.35;2.90;;;;;;;;;;4958104;28;20027;-77
2022/04/19 04:04:47;;;;;;;4.00;2.97;;;;;;;;;;4957911;28;20058;-77
2022/04/19 04:07:13;;;;;;;4.13;3.00;;;;;;;;;;4957311;28;20113;-76
2022/04/19 04:09:39;;;;;;;3.47;2.90;;;;;;;;;;4956479;28;20039;-76
2022/04/19 04:12:09;;;;;;;3.85;2.95;;;;;;;;;;4955091;29;20105;-77
2022/04/19 04:14:37;;;;;;;5.53;3.45;;;;;;;;;;4955553;28;20123;-77
2022/04/19 04:17:03;;;;;;;5.13;2.90;;;;;;;;;;4939102;29;20042;-77
2022/04/19 04:19:28;;;;;;;4.40;3.15;;;;;;;;;;4954718;29;20432;-77
2022/04/19 04:21:54;;;;;;;3.85;3.15;;;;;;;;;;4938773;29;20039;-76
2022/04/19 04:24:20;;;;;;;5.55;3.00;;;;;;;;;;4956242;28;20031;-79
2022/04/19 04:26:45;;;;;;;4.00;3.22;;;;;;;;;;4954968;29;20115;-76
2022/04/19 04:29:11;;;;;;;7.32;2.92;;;;;;;;;;4955857;28;20059;-76
2022/04/19 04:31:36;;;;;;;3.58;2.90;;;;;;;;;;4954685;29;20390;-77
2022/04/19 04:34:02;;;;;;;3.55;2.80;;;;;;;;;;4954840;29;20034;-77
2022/04/19 04:36:27;;;;;;;6.40;2.67;;;;;;;;;;4956216;29;20118;-76
2022/04/19 04:38:53;;;;;;;5.20;2.80;;;;;;;;;;4955939;28;20031;-77
2022/04/19 04:41:18;;;;;;;3.83;2.70;;;;;;;;;;4954361;29;20121;-76
2022/04/19 04:43:44;;;;;;;3.47;2.40;;;;;;;;;;4955789;29;20458;-76
2022/04/19 04:51:37;;;;;;;5.93;3.00;;;;;;;;;;4955929;29;20042;-78
2022/04/19 04:54:03;;;;;;;4.28;3.00;;;;;;;;;;4954453;29;20027;-77
2022/04/19 04:56:28;;;;;;;4.60;2.97;;;;;;;;;;4938392;29;20446;-77
2022/04/19 04:58:53;;;;;;;4.13;3.00;;;;;;;;;;4970325;28;20054;-77
2022/04/19 05:01:19;;;;;;;5.25;3.22;;;;;;;;;;4954536;29;20122;-78
2022/04/19 05:03:44;;;;;;;4.47;3.13;;;;;;;;;;4955419;29;20054;-78
2022/04/19 05:06:10;;;;;;;4.07;2.80;;;;;;;;;;4954203;29;20070;-78
2022/04/19 05:08:35;;;;;;;5.45;2.88;;;;;;;;;;4970551;28;20074;-78
2022/04/19 05:11:00;;;;;;;4.50;2.75;;;;;;;;;;4955668;28;20435;-78
2022/04/19 05:13:26;;;;;;;3.20;2.60;;;;;;;;;;4969970;28;20141;-77
2022/04/19 05:15:51;;;;;;;3.20;2.85;;;;;;;;;;4969812;28;20035;-77
2022/04/19 05:18:16;;;;;;;3.58;2.72;;;;;;;;;;4953471;28;20046;-78
2022/04/19 05:20:42;;;;;;;3.40;2.67;;;;;;;;;;4954638;29;20336;-77
2022/04/19 05:23:07;;;;;;;2.97;2.67;;;;;;;;;;4953831;29;20102;-79
2022/04/19 05:25:33;;;;;;;9.50;3.10;;;;;;;;;;4921988;29;20427;-77
2022/04/19 05:27:58;;;;;;;3.42;2.72;;;;;;;;;;4953619;29;20027;-77
2022/04/19 05:30:24;;;;;;;4.35;2.90;;;;;;;;;;4953804;28;20149;-78
2022/04/19 05:32:49;;;;;;;3.20;2.60;;;;;;;;;;4955959;28;20533;-77
2022/04/19 05:35:14;;;;;;;5.63;2.88;;;;;;;;;;4956038;28;20514;-76
2022/04/19 05:37:40;;;;;;;3.60;2.55;;;;;;;;;;4923102;29;20043;-79
2022/04/19 05:40:07;;;;;;;6.55;2.80;;;;;;;;;;4954383;29;20071;-77
2022/04/19 05:42:32;;;;;;;5.20;3.85;;;;;;;;;;4954045;29;20055;-76
2022/04/19 05:44:57;;;;;;;3.75;2.88;;;;;;;;;;4953621;29;20051;-77
2022/04/19 05:47:23;;;;;;;5.70;2.88;;;;;;;;;;4953660;29;20034;-79
2022/04/19 05:49:49;;;;;;;9.93;3.78;;;;;;;;;;4953481;29;20381;-78
2022/04/19 05:52:14;;;;;;;5.30;2.78;;;;;;;;;;4953460;29;20031;-78
2022/04/19 05:54:39;;;;;;;4.25;2.70;;;;;;;;;;4953442;29;20038;-77
2022/04/19 05:57:05;;;;;;;3.70;2.80;;;;;;;;;;4937299;29;20085;-76
2022/04/19 05:59:30;;;;;;;4.47;2.67;;;;;;;;;;4937214;29;20031;-77
2022/04/19 06:04:52;;;;;;;4.15;2.33;;;;;;;;;;4954594;29;20101;-77
2022/04/19 06:07:19;;;;;;;5.90;2.53;;;;;;;;;;4953110;29;20121;-77
2022/04/19 06:09:44;;;;;;;6.00;2.78;;;;;;;;;;4953052;29;20027;-77
2022/04/19 06:12:10;;;;;;;3.45;2.33;;;;;;;;;;4952958;29;20031;-78
2022/04/19 06:14:35;;;;;;;4.38;2.88;;;;;;;;;;4969015;28;20478;-77
2022/04/19 06:17:00;;;;;;;4.15;2.67;;;;;;;;;;4953002;29;20158;-78
2022/04/19 06:19:27;;;;;;;4.85;2.92;;;;;;;;;;4954361;28;20051;-77
2022/04/19 06:21:53;;;;;;;4.97;3.17;;;;;;;;;;4954259;29;20133;-78
2022/04/19 06:24:18;;;;;;;8.88;3.15;;;;;;;;;;4954216;29;20111;-77
2022/04/19 06:26:44;;;;;;;6.13;3.10;;;;;;;;;;4953038;29;20106;-77
2022/04/19 06:29:10;;;;;;;7.30;3.42;;;;;;;;;;4954208;28;20039;-77
2022/04/19 06:31:35;;;;;;;2.97;2.22;;;;;;;;;;4952206;28;20058;-77
2022/04/19 06:34:01;;;;;;;7.50;2.60;;;;;;;;;;4954120;28;20401;-78
2022/04/19 06:36:27;;;;;;;10.90;4.38;;;;;;;;;;4954290;28;20031;-77
2022/04/19 06:38:52;;;;;;;14.32;5.03;;;;;;;;;;4954025;29;20054;-77
2022/04/19 06:41:17;;;;;;;16.15;4.68;;;;;;;;;;4968486;28;20118;-78
2022/04/19 06:43:43;;;;;;;16.35;4.05;;;;;;;;;;4968467;28;20134;-78
2022/04/19 06:46:09;;;;;;;14.45;4.00;;;;;;;;;;4953831;29;20023;-78
2022/04/19 06:48:34;;;;;;;11.73;4.13;;;;;;;;;;4952614;29;20134;-78
2022/04/19 06:51:00;;;;;;;7.75;3.38;;;;;;;;;;4952489;29;20423;-78
2022/04/19 06:53:29;;;;;;;10.85;3.40;;;;;;;;;;4952537;29;20127;-78
2022/04/19 06:55:58;;;;;;;6.50;3.60;;;;;;;;;;4953990;29;20046;-78
2022/04/19 06:58:24;;;;;;;6.55;3.28;;;;;;;;;;4953863;29;20027;-77
2022/04/19 07:00:50;;;;;;;9.93;3.70;;;;;;;;;;4954030;28;20034;-78
2022/04/19 07:03:16;;;;;;;7.43;3.10;;;;;;;;;;4952211;29;20059;-79
2022/04/19 07:05:41;;;;;;;7.28;3.38;;;;;;;;;;4936438;29;20118;-80
2022/04/19 07:08:07;;;;;;;8.02;3.15;;;;;;;;;;4952329;29;20031;-78
2022/04/19 07:10:33;;;;;;;10.40;3.75;;;;;;;;;;4952534;29;20034;-79
2022/04/19 07:12:59;;;;;;;12.65;3.60;;;;;;;;;;4952491;29;20035;-79
2022/04/19 07:15:25;;;;;;;7.53;3.17;;;;;;;;;;4952414;29;20046;-78
2022/04/19 07:17:51;;;;;;;11.13;3.65;;;;;;;;;;4952455;29;20031;-80
2022/04/19 07:28:28;;;;;;;16.77;6.13;;;;;;;;;;4952585;29;20037;-79
2022/04/19 07:30:53;;;;;;;19.42;5.90;;;;;;;;;;4936089;29;20110;-79
2022/04/19 07:33:19;;;;;;;17.80;5.85;;;;;;;;;;4936215;29;20094;-80
2022/04/19 07:35:45;;;;;;;16.40;5.70;;;;;;;;;;4952097;29;20039;-80
2022/04/19 07:38:11;;;;;;;16.30;5.43;;;;;;;;;;4953654;28;20027;-79
2022/04/19 07:40:36;;;;;;;22.98;7.18;;;;;;;;;;4952011;29;20134;-78
2022/04/19 07:43:02;;;;;;;15.75;5.40;;;;;;;;;;4955563;28;20058;-79
2022/04/19 07:45:29;;;;;;;13.63;4.90;;;;;;;;;;4955746;29;20107;-78
2022/04/19 07:47:54;;;;;;;10.07;4.70;;;;;;;;;;4957223;28;20038;-78
2022/04/19 07:50:19;;;;;;;11.93;4.30;;;;;;;;;;4957252;28;20031;-81
2022/04/19 07:52:45;;;;;;;11.50;3.78;;;;;;;;;;4956947;28;20118;-79
2022/04/19 07:55:11;;;;;;;8.75;4.05;;;;;;;;;;4939460;29;20395;-79
2022/04/19 07:57:36;;;;;;;8.00;3.97;;;;;;;;;;4956041;29;20449;-80
2022/04/19 08:00:03;;;;;;;13.63;3.58;;;;;;;;;;4957190;28;20454;-79
2022/04/19 08:02:30;;;;;;;9.10;4.05;;;;;;;;;;4956754;28;20046;-79
2022/04/19 08:04:56;;;;;;;10.38;4.00;;;;;;;;;;4955099;29;20038;-79
2022/04/19 08:07:21;;;;;;;9.55;3.20;;;;;;;;;;4971125;28;20367;-79
2022/04/19 08:09:47;;;;;;;8.23;3.50;;;;;;;;;;4939392;29;20035;-79
2022/04/19 08:12:12;;;;;;;4.10;2.50;;;;;;;;;;4955074;29;20201;-79
2022/04/19 08:14:37;;;;;;;4.35;2.70;;;;;;;;;;4955261;29;20031;-79
2022/04/19 08:17:03;;;;;;;3.75;2.58;;;;;;;;;;4955285;29;20038;-79
2022/04/19 08:19:28;;;;;;;5.18;2.60;;;;;;;;;;4956676;29;20038;-79
2022/04/19 08:21:54;;;;;;;11.35;2.60;;;;;;;;;;4955347;29;20023;-80
2022/04/19 08:24:19;;;;;;;4.00;2.25;;;;;;;;;;4956635;29;20035;-80
2022/04/19 08:26:45;;;;;;;5.00;2.40;;;;;;;;;;4955335;29;20055;-79
2022/04/19 08:29:11;;;;;;;2.80;1.92;;;;;;;;;;4954654;28;20553;-80
2022/04/19 08:31:37;;;;;;;5.90;2.75;;;;;;;;;;4970888;28;20043;-81
2022/04/19 08:34:03;;;;;;;4.43;2.50;;;;;;;;;;4955548;28;20328;-79
2022/04/19 08:36:29;;;;;;;14.20;3.30;;;;;;;;;;4938915;29;20027;-80
2022/04/19 08:38:54;;;;;;;7.15;3.05;;;;;;;;;;4954697;29;20031;-80
2022/04/19 08:41:21;;;;;;;6.07;3.00;;;;;;;;;;4938173;29;20055;-80
2022/04/19 08:43:47;;;;;;;3.88;2.85;;;;;;;;;;4954410;29;20125;-80
2022/04/19 08:46:14;;;;;;;9.48;2.80;;;;;;;;;;4938487;28;20027;-79
2022/04/19 08:48:40;;;;;;;4.97;2.80;;;;;;;;;;4956152;28;20027;-79
2022/04/19 08:51:09;;;;;;;5.82;2.90;;;;;;;;;;4954539;29;20474;-79
2022/04/19 08:59:06;;;;;;;3.53;2.67;;;;;;;;;;4954837;29;20046;-78
2022/04/19 09:01:32;;;;;;;5.15;2.78;;;;;;;;;;4954155;29;20034;-77
2022/04/19 09:03:57;;;;;;;6.22;2.83;;;;;;;;;;4954020;29;20335;-80
2022/04/19 09:06:48;;;;;;;5.57;2.60;;;;;;;;;;4938023;29;20038;-79
2022/04/19 09:09:13;;;;;;;9.82;2.83;;;;;;;;;;4970298;28;20393;-81
2022/04/19 09:11:39;;;;;;;7.18;2.65;;;;;;;;;;4954503;29;20043;-80
2022/04/19 09:14:05;;;;;;;4.10;2.60;;;;;;;;;;4955871;29;20039;-82
2022/04/19 09:16:31;;;;;;;10.90;2.75;;;;;;;;;;4970237;28;20181;-81
2022/04/19 09:18:56;;;;;;;7.90;3.03;;;;;;;;;;4953685;29;20097;-80
2022/04/19 09:21:36;;;;;;;2.60;2.10;;;;;;;;;;4955521;28;20042;-79
2022/04/19 09:24:01;;;;;;;8.07;2.22;;;;;;;;;;4954520;28;20484;-80
2022/04/19 09:26:45;;;;;;;3.92;2.10;;;;;;;;;;4954066;29;20115;-80
2022/04/19 09:29:21;;;;;;;4.72;2.40;;;;;;;;;;4954162;28;20053;-81
2022/04/19 09:31:50;;;;;;;4.63;2.65;;;;;;;;;;4955205;28;20061;-80
2022/04/19 09:34:34;;;;;;;3.25;2.42;;;;;;;;;;4954057;29;20436;-80
2022/04/19 09:37:11;;;;;;;3.78;2.30;;;;;;;;;;4955825;28;20027;-80
2022/04/19 09:39:37;;;;;;;2.50;2.05;;;;;;;;;;4953922;29;20488;-79
2022/04/19 09:42:05;;;;;;;3.50;2.20;;;;;;;;;;4953568;29;20070;-79
2022/04/19 09:44:36;;;;;;;3.70;1.98;;;;;;;;;;4954964;28;20469;-79
2022/04/19 09:47:07;;;;;;;2.78;2.03;;;;;;;;;;4954801;29;20031;-80
2022/04/19 09:49:49;;;;;;;3.58;2.10;;;;;;;;;;4954687;28;20078;-78
2022/04/19 09:52:20;;;;;;;3.25;2.00;;;;;;;;;;4953283;29;20035;-78
2022/04/19 09:55:01;;;;;;;3.47;2.15;;;;;;;;;;4954503;28;20035;-79
2022/04/19 09:57:29;;;;;;;55.10;11.15;;;;;;;;;;4954546;29;20034;-79
2022/04/19 09:59:54;;;;;;;71.22;17.05;;;;;;;;;;4953193;29;20371;-79
2022/04/19 10:10:32;;;;;;;37.20;10.25;;;;;;;;;;4953267;29;20264;-80
2022/04/19 10:12:58;;;;;;;32.22;9.07;;;;;;;;;;4936950;29;20043;-79
2022/04/19 10:15:24;;;;;;;36.85;8.20;;;;;;;;;;4954205;28;20035;-79
2022/04/19 10:17:49;;;;;;;28.70;7.88;;;;;;;;;;4954289;28;20054;-82
2022/04/19 10:20:16;;;;;;;26.20;8.30;;;;;;;;;;4954452;29;20035;-81
2022/04/19 10:22:48;;;;;;;24.92;6.78;;;;;;;;;;4937337;29;20058;-82
2022/04/19 10:25:13;;;;;;;18.25;5.80;;;;;;;;;;4936845;29;20054;-80
2022/04/19 10:27:39;;;;;;;19.35;6.00;;;;;;;;;;4938386;29;20490;-80
2022/04/19 10:30:06;;;;;;;21.95;5.78;;;;;;;;;;4956090;28;20058;-79
2022/04/19 10:32:35;;;;;;;18.95;5.35;;;;;;;;;;4956616;28;20054;-79
2022/04/19 10:35:02;;;;;;;11.93;4.90;;;;;;;;;;4956004;28;20517;-79
2022/04/19 10:37:27;;;;;;;9.68;4.43;;;;;;;;;;4956178;28;20453;-79
2022/04/19 10:39:58;;;;;;;10.75;3.97;;;;;;;;;;4955477;29;20047;-79
2022/04/19 10:42:32;;;;;;;7.10;3.65;;;;;;;;;;4955316;29;20063;-80
2022/04/19 10:44:58;;;;;;;;;;;;;;;;;;4955045;29;20478;-79
2022/04/19 10:47:24;;;;;;;6.78;3.03;;;;;;;;;;4953745;29;19962;-81
2022/04/19 10:50:00;;;;;;;7.57;3.25;;;;;;;;;;4953881;29;20097;-81
2022/04/19 10:52:40;;;;;;;6.38;2.90;;;;;;;;;;4955649;29;20470;-79
2022/04/19 10:55:19;;;;;;;6.35;3.10;;;;;;;;;;4953151;29;20102;-81
2022/04/19 11:00:51;;;;;;;6.32;2.63;;;;;;;;;;4954410;29;20057;-82
2022/04/19 11:03:26;;;;;;;4.35;2.58;;;;;;;;;;4954474;29;20038;-81
2022/04/19 11:05:58;;;;;;;5.50;2.58;;;;;;;;;;4954397;28;20391;-81
2022/04/19 11:08:27;;;;;;;7.32;2.90;;;;;;;;;;4952482;29;20034;-82
2022/04/19 11:11:21;;;;;;;5.10;2.50;;;;;;;;;;4952252;29;20106;-82
2022/04/19 11:14:15;;;;;;;;;;;;;;;;;;4954469;28;20113;-80
2022/04/19 11:16:40;;;;;;;4.05;2.25;;;;;;;;;;4954091;28;19910;-80
2022/04/19 11:19:14;;;;;;;4.65;2.60;;;;;;;;;;4957751;29;20037;-82
2022/04/19 11:21:54;;;;;;;3.72;2.45;;;;;;;;;;4956518;29;20031;-80
2022/04/19 11:24:57;;;;;;;3.72;2.20;;;;;;;;;;4957333;29;20133;-80
2022/04/19 11:27:22;;;;;;;3.72;2.65;;;;;;;;;;4957344;29;20106;-80
2022/04/19 11:29:49;;;;;;;3.42;2.20;;;;;;;;;;4940049;29;20062;-81
2022/04/19 11:32:25;;;;;;;4.15;2.78;;;;;;;;;;4956515;29;20073;-80
2022/04/19 11:34:58;;;;;;;2.80;1.92;;;;;;;;;;4939798;29;20039;-81
2022/04/19 11:37:23;;;;;;;5.38;2.25;;;;;;;;;;4956287;29;20050;-81
2022/04/19 11:48:01;;;;;;;4.30;2.33;;;;;;;;;;4955891;29;20066;-80
2022/04/19 11:50:29;;;;;;;3.13;2.10;;;;;;;;;;4955494;29;20062;-81
2022/04/19 11:52:54;;;;;;;3.05;2.10;;;;;;;;;;4956939;28;20050;-81
2022/04/19 11:55:24;;;;;;;3.22;2.20;;;;;;;;;;4956679;28;20054;-80
2022/04/19 11:58:02;;;;;;;3.53;2.30;;;;;;;;;;4956815;28;20110;-80
2022/04/19 12:00:27;;;;;;;2.97;2.00;;;;;;;;;;4955180;29;20049;-81
2022/04/19 12:02:53;;;;;;;2.97;2.10;;;;;;;;;;4955480;29;20455;-81
2022/04/19 12:05:29;;;;;;;2.53;2.13;;;;;;;;;;4956174;29;20067;-81
2022/04/19 12:07:55;;;;;;;3.42;2.20;;;;;;;;;;4955041;29;20101;-81
2022/04/19 12:10:21;;;;;;;4.75;2.22;;;;;;;;;;4954998;29;20039;-81
2022/04/19 12:12:47;;;;;;;3.13;2.30;;;;;;;;;;4956380;28;20059;-81
2022/04/19 12:15:13;;;;;;;2.67;1.90;;;;;;;;;;4956314;28;20039;-81
2022/04/19 12:17:45;;;;;;;1.95;1.75;;;;;;;;;;4955927;28;20031;-81
2022/04/19 12:20:11;;;;;;;2.92;1.80;;;;;;;;;;4954683;29;20031;-81
2022/04/19 12:22:36;;;;;;;2.53;1.88;;;;;;;;;;4955017;29;20437;-80
2022/04/19 12:25:04;;;;;;;3.28;1.90;;;;;;;;;;4938693;29;20042;-81
2022/04/19 12:27:35;;;;;;;3.80;2.03;;;;;;;;;;4955960;28;20093;-81
2022/04/19 12:30:14;;;;;;;2.10;1.70;;;;;;;;;;4955792;28;20031;-80
2022/04/19 12:32:56;;;;;;;2.90;1.92;;;;;;;;;;4954824;29;20031;-81
2022/04/19 12:35:33;;;;;;;2.13;1.90;;;;;;;;;;4954590;29;20039;-81
2022/04/19 12:38:16;;;;;;;2.72;2.03;;;;;;;;;;4956133;29;20178;-80
2022/04/19 12:40:43;;;;;;;1.98;1.70;;;;;;;;;;4956868;29;20138;-81
2022/04/19 12:43:10;;;;;;;3.85;1.80;;;;;;;;;;4955553;29;20043;-80
2022/04/19 12:45:36;;;;;;;1.52;1.38;;;;;;;;;;4955187;29;20031;-80
2022/04/19 12:48:02;;;;;;;2.28;1.70;;;;;;;;;;4954880;29;20470;-80
2022/04/19 12:50:28;;;;;;;2.00;1.50;;;;;;;;;;4955948;28;20063;-80
2022/04/19 12:52:53;;;;;;;2.03;1.50;;;;;;;;;;4970113;28;20129;-82
2022/04/19 12:55:32;;;;;;;3.40;1.58;;;;;;;;;;4938558;29;20134;-80
2022/04/19 12:58:10;;;;;;;1.73;1.52;;;;;;;;;;4955532;28;20031;-80
2022/04/19 13:00:36;;;;;;;2.50;1.17;;;;;;;;;;4954415;29;20031;-80
2022/04/19 13:03:03;;;;;;;14.52;1.30;;;;;;;;;;4953975;28;20027;-80
2022/04/19 13:13:40;;;;;;;1.48;1.00;;;;;;;;;;4955627;29;20042;-82
2022/04/19 13:16:05;;;;;;;1.10;1.10;;;;;;;;;;4955066;29;20105;-81
2022/04/19 13:18:31;;;;;;;1.00;1.00;;;;;;;;;;4955287;29;20185;-80
2022/04/19 13:20:56;;;;;;;1.08;0.95;;;;;;;;;;4955532;29;20394;-80
2022/04/19 13:23:21;;;;;;;1.40;1.02;;;;;;;;;;4938007;29;20517;-82
2022/04/19 13:25:47;;;;;;;0.95;0.95;;;;;;;;;;4955399;29;20031;-81
2022/04/19 13:28:12;;;;;;;0.95;0.90;;;;;;;;;;4953714;29;20055;-82
2022/04/19 13:30:40;;;;;;;1.10;1.00;;;;;;;;;;4955194;28;20047;-81
2022/04/19 13:33:05;;;;;;;1.27;1.00;;;;;;;;;;4955439;28;20031;-81
2022/04/19 13:35:30;;;;;;;2.95;1.10;;;;;;;;;;4970173;28;20137;-82
2022/04/19 13:40:40;;;;;;;;;;;;;;;;;;4954140;28;20098;-80
2022/04/19 13:43:05;;;;;;;1.83;1.10;;;;;;;;;;4953886;29;19914;-82
2022/04/19 13:45:33;;;;;;;1.25;0.85;;;;;;;;;;4937659;29;20027;-81
2022/04/19 13:47:59;;;;;;;1.83;0.90;;;;;;;;;;4937987;29;20027;-82
2022/04/19 13:50:24;;;;;;;1.30;1.10;;;;;;;;;;4953611;29;20038;-81
2022/04/19 13:52:50;;;;;;;2.22;0.98;;;;;;;;;;4953529;29;20038;-81
2022/04/19 13:55:18;;;;;;;0.85;0.85;;;;;;;;;;4937409;29;20035;-80
2022/04/19 13:57:43;;;;;;;1.50;1.05;;;;;;;;;;4953460;29;20343;-80
2022/04/19 14:00:11;;;;;;;1.50;0.90;;;;;;;;;;4953396;29;20042;-81
2022/04/19 14:02:36;;;;;;;1.40;1.10;;;;;;;;;;4954797;29;20500;-81
2022/04/19 14:05:02;;;;;;;0.85;0.85;;;;;;;;;;4954755;28;20067;-81
2022/04/19 14:07:27;;;;;;;0.80;0.80;;;;;;;;;;4954533;29;20035;-81
2022/04/19 14:09:52;;;;;;;1.10;1.00;;;;;;;;;;4954515;29;20082;-81
2022/04/19 14:12:18;;;;;;;1.48;1.10;;;;;;;;;;4954674;28;20114;-81
2022/04/19 14:14:43;;;;;;;2.35;1.02;;;;;;;;;;4953141;29;20031;-81
2022/04/19 14:17:09;;;;;;;1.20;1.10;;;;;;;;;;4937182;29;20099;-81
2022/04/19 14:19:34;;;;;;;2.05;1.00;;;;;;;;;;4953061;28;20038;-81
2022/04/19 14:22:00;;;;;;;2.15;1.00;;;;;;;;;;4952838;29;20035;-81
2022/04/19 14:24:27;;;;;;;1.52;1.20;;;;;;;;;;4954444;28;20039;-81
2022/04/19 14:26:52;;;;;;;1.40;1.13;;;;;;;;;;4952966;29;20500;-80
2022/04/19 14:34:45;;;;;;;3.38;1.40;;;;;;;;;;4953996;29;20157;-80
2022/04/19 14:37:11;;;;;;;1.00;1.00;;;;;;;;;;4954628;28;20027;-80
2022/04/19 14:39:37;;;;;;;2.13;1.10;;;;;;;;;;4954047;28;20031;-81
2022/04/19 14:42:03;;;;;;;2.05;1.10;;;;;;;;;;4952596;29;20047;-81
2022/04/19 14:44:29;;;;;;;1.10;1.00;;;;;;;;;;4953839;29;20035;-81
2022/04/19 14:46:55;;;;;;;1.00;0.90;;;;;;;;;;4952949;29;20074;-81
2022/04/19 14:49:20;;;;;;;1.17;1.08;;;;;;;;;;4954071;28;20045;-80
2022/04/19 14:54:29;;;;;;;1.85;1.27;;;;;;;;;;4952805;29;20489;-81
2022/04/19 14:56:55;;;;;;;0.90;0.90;;;;;;;;;;4952582;29;20046;-81
2022/04/19 14:59:21;;;;;;;1.00;1.00;;;;;;;;;;4968317;28;20054;-81
2022/04/19 15:01:47;;;;;;;2.55;1.10;;;;;;;;;;4936655;29;20042;-81
2022/04/19 15:04:12;;;;;;;1.77;1.20;;;;;;;;;;4952399;28;20031;-81
2022/04/19 15:06:38;;;;;;;0.80;0.80;;;;;;;;;;4952421;29;20039;-80
2022/04/19 15:09:03;;;;;;;1.35;1.00;;;;;;;;;;4953689;29;20027;-80
2022/04/19 15:11:29;;;;;;;1.48;0.90;;;;;;;;;;4968489;28;20039;-81
2022/04/19 15:13:54;;;;;;;1.00;0.88;;;;;;;;;;4952440;29;20034;-81
2022/04/19 15:16:20;;;;;;;1.10;1.00;;;;;;;;;;4952751;29;20102;-81
2022/04/19 15:18:45;;;;;;;1.10;1.00;;;;;;;;;;4953814;28;20038;-80
2022/04/19 15:21:10;;;;;;;0.95;0.90;;;;;;;;;;4953738;29;20498;-81
2022/04/19 15:23:36;;;;;;;1.15;1.00;;;;;;;;;;4955245;29;20042;-81
2022/04/19 15:26:02;;;;;;;1.25;0.90;;;;;;;;;;4955323;29;20171;-80
2022/04/19 15:28:31;;;;;;;3.35;1.00;;;;;;;;;;4954919;28;20408;-80
2022/04/19 15:30:56;;;;;;;1.60;1.20;;;;;;;;;;4953571;28;20046;-81
2022/04/19 15:33:22;;;;;;;1.10;1.00;;;;;;;;;;4953560;28;20035;-79
2022/04/19 15:35:47;;;;;;;1.48;1.38;;;;;;;;;;4953633;29;20089;-79
2022/04/19 15:38:12;;;;;;;1.40;0.82;;;;;;;;;;4935907;29;20039;-79
2022/04/19 15:40:38;;;;;;;1.20;1.02;;;;;;;;;;4953514;29;20074;-78
2022/04/19 15:43:05;;;;;;;1.55;1.10;;;;;;;;;;4935830;29;20059;-79
2022/04/19 15:45:33;;;;;;;3.33;1.00;;;;;;;;;;4951973;29;20039;-80
2022/04/19 15:47:59;;;;;;;4.10;1.10;;;;;;;;;;4936426;29;20118;-80
2022/04/19 15:50:24;;;;;;;1.00;0.88;;;;;;;;;;4951890;29;20482;-78
2022/04/19 15:52:50;;;;;;;1.00;1.00;;;;;;;;;;4935805;29;20085;-78